Maria Desgagnes — VCWL — position and weather

sailwx.info

Track history (hours):
 
Tides and Currents Weather Stations Pressure Air Temp Water Temp Dewpoint Dewpoint Depression Visibility Wind Speed Wind Dir Waves Ship Positions

Maria Desgagnes

Last reported at 2018-Aug-20 16:00 UTC. Time now 2018-Aug-20 16:48 UTC.
Position N 56°42' W 076°54'.

Length 120 m; draft 5.6 m.

Type: Ship (hazmat cat A). MMSI: 316285000.

Wind from 250 at 21 knots

Barometer 1019.5 mb
Air temperature 5.7 ° C
Dewpoint 4.2 ° C
Water temperature 7.2 ° C

Date/timePositionNaut miles runAvg speedWind from/ knotsBaromVisibWave heightAir tempDewpointWater temp
2018-Aug-20 16:00N 56°42' W 076°54'1212.0 250 / 211019.5 5.7 4.2 7.2
2018-Aug-20 15:00N 56°54' W 076°54'1212.0 260 / 201018.9 5.7 4.3 7.4
2018-Aug-20 14:00N 57°06' W 076°54'1212.0 270 / 191018.3 6.2 4.6 7.8
2018-Aug-20 13:00N 57°18' W 076°54'1413.6 280 / 211017.2 6.0 4.5 7.8
2018-Aug-20 12:00N 57°30' W 077°06'1212.4 280 / 221016.1 6.1 4.2 8.2
2018-Aug-20 11:00N 57°42' W 077°12'2211.0 290 / 231014.6 6.3 4.1 8.1
2018-Aug-20 09:00N 58°00' W 077°36'1515.3 290 / 231012.4 6.2 4.2 7.8
2018-Aug-20 08:00N 58°12' W 077°54'1111.2 290 / 211011.5 6.1 3.8 6.9
2018-Aug-20 07:00N 58°18' W 078°12'1111.2 290 / 231010.5 5.9 3.5 6.8
2018-Aug-20 06:00N 58°24' W 078°30'1717.4 290 / 231009.0 5.9 3.0 6.5
2018-Aug-20 05:00N 58°36' W 078°54'1111.1 300 / 241007.8 6.1 3.2 6.9
2018-Aug-20 04:00N 58°42' W 079°12'1212.4 310 / 231006.7 5.1 2.8 5.9
2018-Aug-20 03:00N 58°54' W 079°18'1212.0 310 / 281005.1 4.6 3.4 5.5
2018-Aug-20 02:00N 59°06' W 079°18'1212.4 310 / 281003.5 4.4 3.5 5.0
2018-Aug-20 01:00N 59°18' W 079°12'1212.0 300 / 251001.5 4.5 4.1 4.4
2018-Aug-20 00:00N 59°30' W 079°12'1212.4 290 / 24999.8 4.5 4.4 4.3
2018-Aug-19 23:00N 59°42' W 079°06'1212.0 280 / 22998.3 4.8 4.8 4.6
2018-Aug-19 22:00N 59°54' W 079°06'1818.2 280 / 20996.5 4.8 4.7 4.1
2018-Aug-19 21:00N 60°12' W 079°00'1212.4 270 / 20995.6 4.7 4.6 4.1
2018-Aug-19 20:00N 60°24' W 078°54'1212.0 260 / 13995.1 4.5 4.4 3.8
2018-Aug-19 19:00N 60°36' W 078°54'1212.0 230 / 12994.4 4.5 4.4 5.2
2018-Aug-19 18:00N 60°48' W 078°54'6 6.0 210 / 18994.1 4.6 4.6 4.5
2018-Aug-19 17:00N 60°54' W 078°54'1818.2 190 / 19993.9 4.5 4.4 3.3
2018-Aug-19 16:00N 61°12' W 078°48'1212.0 200 / 20993.6 4.3 4.2 2.9
2018-Aug-19 15:00N 61°24' W 078°48'1212.3 190 / 22993.5 4.5 4.0 3.4
2018-Aug-19 14:00N 61°36' W 078°42'1212.3 170 / 19995.0 4.9 3.8 3.6
2018-Aug-19 13:00N 61°48' W 078°36'1212.0 160 / 20995.6 4.6 3.9 2.8
2018-Aug-19 12:00N 62°00' W 078°36'1212.3 160 / 24996.3 4.4 4.3 2.6
2018-Aug-19 11:00N 62°12' W 078°30'1212.0 170 / 22998.2 4.1 3.7 2.3
2018-Aug-19 10:00N 62°24' W 078°30'1514.6 170 / 26997.7 6.1 2.4 3.2
2018-Aug-19 09:00N 62°36' W 078°12'1010.2 170 / 22999.0 5.5 3.2 2.6
2018-Aug-19 08:00N 62°42' W 077°54'1111.0 180 / 211001.2 6.9 4.3 3.3
2018-Aug-19 07:00N 62°42' W 077°30'1111.0 160 / 101002.2 7.7 4.4 2.5
2018-Aug-19 06:00N 62°42' W 077°06'1413.8 250 / 61004.0 7.8 3.5 2.9
2018-Aug-19 05:00N 62°42' W 076°36'1515.0 240 / 21004.7 7.6 5.6 3.3
2018-Aug-19 04:00N 62°48' W 076°06'1111.0 210 / 81005.4 6.8 5.4 1.5
2018-Aug-19 03:00N 62°48' W 075°42'1111.0 180 / 81006.3 5.3 5.2 1.6
2018-Aug-19 02:00N 62°48' W 075°18'1413.7 140 / 81007.1 2.8 2.7 2.2
2018-Aug-19 01:00N 62°48' W 074°48'1111.0 140 / 71007.7 2.7 2.6 2.6
2018-Aug-19 00:00N 62°48' W 074°24'1515.0 260 / 31008.0 2.8 2.7 2.3
2018-Aug-18 23:00N 62°42' W 073°54'1312.6 270 / 51008.1 3.5 3.5 1.1
2018-Aug-18 22:00N 62°36' W 073°30'1312.6 310 / 111007.6 3.2 3.2 0.9
2018-Aug-18 21:00N 62°30' W 073°06'1312.6 310 / 131007.5 3.8 3.7 2.0
2018-Aug-18 20:00N 62°24' W 072°42'3 2.8 320 / 161007.6 3.3 3.2 3.1
2018-Aug-18 19:00N 62°24' W 072°36'6 5.6 300 / 141007.1 4.0 3.9 2.4
2018-Aug-18 18:00N 62°24' W 072°24'1515.2 310 / 141006.8 3.6 3.5 3.6
2018-Aug-18 17:00N 62°18' W 071°54'1010.3 300 / 181006.2 3.9 3.8 3.2
2018-Aug-18 16:00N 62°12' W 071°36'1312.7 280 / 121006.7 4.2 4.1 3.3
2018-Aug-18 15:00N 62°06' W 071°12'1111.2 300 / 111006.5 4.4 4.2 3.0
2018-Aug-18 14:00N 62°06' W 070°48'1010.4 320 / 131006.7 4.3 4.2 2.3
2018-Aug-18 13:00N 62°00' W 070°30'1312.8 310 / 121006.6 4.3 4.2 3.3
2018-Aug-18 12:00N 61°54' W 070°06'1111.3 320 / 121006.2 3.7 2.8 4.1
2018-Aug-18 11:00N 61°54' W 069°42'1010.4 310 / 161005.6 4.0 2.8 3.1
2018-Aug-18 10:00N 61°48' W 069°24'1312.8 310 / 171005.0 3.2 1.9 1.7
2018-Aug-18 09:00N 61°42' W 069°00'9 8.5 310 / 221004.0 2.2 2.1 1.9
2018-Aug-18 08:00N 61°42' W 068°42'8 8.3 310 / 231002.6 2.5 2.4 2.3
2018-Aug-18 07:00N 61°36' W 068°30'6 5.7 310 / 271001.4 2.4 2.4 1.6
2018-Aug-18 06:00N 61°36' W 068°18'1010.5 320 / 27999.8 2.8 2.7 1.5
2018-Aug-18 05:00N 61°30' W 068°00'6 5.7 310 / 25998.8 3.1 2.8 1.6
2018-Aug-18 04:00N 61°30' W 067°48'8 8.3 320 / 28996.6 3.3 2.9 1.2
2018-Aug-18 03:00N 61°24' W 067°36'9 8.6 320 / 28996.5 3.2 2.7 1.6
2018-Aug-18 02:00N 61°24' W 067°18'6 5.7 310 / 29995.2 2.8 2.5 1.3
2018-Aug-18 01:00N 61°24' W 067°06'1110.5 310 / 27994.7 2.6 2.4 1.0
2018-Aug-18 00:00N 61°18' W 066°48'8 8.3 300 / 28993.9 2.5 2.4 1.7
2018-Aug-17 23:00N 61°12' W 066°36'6 5.8 290 / 24994.4 2.3 2.2 1.7
2018-Aug-17 22:00N 61°12' W 066°24'1110.6 270 / 25994.6 1.9 1.7 1.6
2018-Aug-17 21:00N 61°06' W 066°06'2110.6 260 / 27993.5 1.9 1.7 1.7
2018-Aug-17 19:00N 61°00' W 065°24'1313.1 250 / 28993.5 2.3 1.5 1.4
2018-Aug-17 18:00N 60°54' W 065°00'9 8.8 260 / 28993.5 2.6 1.8 2.2
2018-Aug-17 17:00N 60°54' W 064°42'1313.1 250 / 25994.2 2.8 1.9 1.7
2018-Aug-17 16:00N 60°48' W 064°18'1716.8 240 / 21995.3 2.7 2.2 1.8
2018-Aug-17 15:00N 60°36' W 063°54'1313.4 230 / 12996.7 2.9 2.8 1.9
2018-Aug-17 14:00N 60°24' W 063°42'1515.0 250 / 17996.8 4.1 3.6 1.9
2018-Aug-17 13:00N 60°12' W 063°24'1313.4 250 / 18997.2 5.5 4.0 2.9
2018-Aug-17 12:00N 60°00' W 063°12'1110.8 290 / 18996.9 6.2 5.2 3.3
2018-Aug-17 11:00N 59°54' W 062°54'1313.4 240 / 13997.1 8.9 5.7 3.2
2018-Aug-17 10:00N 59°42' W 062°42'1313.4 180 / 20997.7 9.0 5.6 5.4
2018-Aug-17 09:00N 59°30' W 062°30'1110.9 190 / 22998.3 9.5 5.4 5.4
2018-Aug-17 08:00N 59°24' W 062°12'1212.4 190 / 23999.4 9.0 5.4 5.9
2018-Aug-17 07:00N 59°12' W 062°06'9 8.6 170 / 231001.4 8.5 4.9 6.3
2018-Aug-17 06:00N 59°06' W 061°54'1313.5 160 / 181002.7 9.8 5.1 4.6
2018-Aug-17 05:00N 58°54' W 061°42'9 8.6 200 / 141004.9 11.5 5.3 5.8
2018-Aug-17 04:00N 58°48' W 061°30'9 8.6 190 / 171005.4 8.9 4.6 6.4
2018-Aug-17 03:00N 58°42' W 061°18'1212.4 180 / 201006.7 9.4 4.3 6.0
2018-Aug-17 02:00N 58°30' W 061°12'1111.2 190 / 211008.0 9.6 4.6 5.4
2018-Aug-17 01:00N 58°24' W 060°54'1212.4 180 / 171009.5 7.8 4.4 5.5
2018-Aug-17 00:00N 58°12' W 060°48'1515.3 170 / 171010.8 7.4 4.6 5.1
2018-Aug-16 23:00N 58°00' W 060°30'1413.6 170 / 171011.8 7.9 4.6 4.6
2018-Aug-16 22:00N 57°48' W 060°18'1413.6 170 / 151012.8 9.5 4.9 4.6
2018-Aug-16 21:00N 57°36' W 060°06'9 8.8 200 / 151013.3 9.3 5.4 4.9
2018-Aug-16 20:00N 57°30' W 059°54'3 3.2 210 / 151013.5 9.5 5.8 5.3
2018-Aug-16 19:00N 57°30' W 059°48'1413.6 200 / 121014.1 8.5 6.0 5.4
2018-Aug-16 18:00N 57°18' W 059°36'1413.6 230 / 111014.2 8.8 5.6 5.8
2018-Aug-16 17:00N 57°06' W 059°24'1413.7 240 / 111014.6 8.0 5.8 5.1
2018-Aug-16 16:00N 56°54' W 059°12'1211.5 250 / 121015.0 8.0 5.8 4.8
2018-Aug-16 15:00N 56°48' W 058°54'1212.4 250 / 121015.3 7.7 5.7 4.9
2018-Aug-16 14:00N 56°36' W 058°48'1413.7 260 / 121015.6 7.0 4.9 4.4
2018-Aug-16 13:00N 56°24' W 058°36'1413.7 260 / 101015.6 6.7 5.1 4.5
2018-Aug-16 12:00N 56°12' W 058°24'9 9.0 260 / 111015.4 6.5 5.3 5.2
2018-Aug-16 11:00N 56°06' W 058°12'1615.7 240 / 101015.5 6.5 5.1 4.9
2018-Aug-16 10:00N 55°54' W 057°54'9 9.0 280 / 101015.0 7.1 5.7 7.6
2018-Aug-16 09:00N 55°48' W 057°42'1413.8 280 / 91014.7 6.1 5.7 5.8
2018-Aug-16 08:00N 55°36' W 057°30'1413.8 300 / 101014.0 6.0 5.4 6.8
2018-Aug-16 07:00N 55°24' W 057°18'7 6.9 310 / 131013.0 6.0 5.3 5.4
2018-Aug-16 06:00N 55°18' W 057°12'1413.8 310 / 121012.6 5.7 4.9 5.8
2018-Aug-16 05:00N 55°06' W 057°00'1413.8 340 / 171011.0 5.6 5.1 6.2
2018-Aug-16 04:00N 54°54' W 056°48'7 6.9 340 / 221011.3 5.5 5.3 6.1
2018-Aug-16 03:00N 54°48' W 056°42'9 9.2 320 / 201010.9 5.8 5.7 6.1
2018-Aug-16 02:00N 54°42' W 056°30'1212.5 330 / 231008.6 6.0 5.9 6.8
2018-Aug-16 01:00N 54°30' W 056°24'9 9.2 330 / 261007.4 6.7 6.2 6.7
2018-Aug-16 00:00N 54°24' W 056°12'1312.5 320 / 241006.8 6.2 6.0 6.2
2018-Aug-15 23:00N 54°12' W 056°06'1413.9 320 / 291004.9 6.9 6.0 7.8
2018-Aug-15 22:00N 54°00' W 055°54'9 9.3 320 / 271004.6 7.0 6.2 6.4
2018-Aug-15 21:00N 53°54' W 055°42'1312.5 330 / 261003.3 7.0 6.7 6.6
2018-Aug-15 20:00N 53°42' W 055°36'1414.0 340 / 221001.3 7.9 7.4 7.9
2018-Aug-15 19:00N 53°30' W 055°24'7 7.0 190 / 191000.2 12.812.7 8.5
2018-Aug-15 18:00N 53°24' W 055°18'1212.0 190 / 201000.8 13.112.8 9.1
2018-Aug-15 17:00N 53°12' W 055°18'1818.0 180 / 231002.1 12.512.3 7.3
2018-Aug-15 16:00N 52°54' W 055°18'1212.0 190 / 241003.4 13.813.7 8.8
2018-Aug-15 15:00N 52°42' W 055°18'1212.0 200 / 261004.5 13.413.4 9.1
2018-Aug-15 14:00N 52°30' W 055°18'1212.0 190 / 281005.0 13.413.3 9.5
2018-Aug-15 13:00N 52°18' W 055°18'1212.0 200 / 251006.5 14.314.1 9.8
2018-Aug-15 12:00N 52°06' W 055°18'1616.3 210 / 121006.8 15.213.810.3
2018-Aug-15 11:00N 51°54' W 055°36'10 9.5 210 / 171007.8 18.316.510.4
2018-Aug-15 10:00N 51°48' W 055°48'1616.4 200 / 141008.4 18.116.514.2
2018-Aug-15 09:00N 51°36' W 056°06'1616.1 220 / 101008.7 17.516.216.6
2018-Aug-15 08:00N 51°30' W 056°30'1312.7 260 / 101009.0 17.016.216.5
2018-Aug-15 07:00N 51°24' W 056°48'1616.5 240 / 151009.7 19.316.717.5
2018-Aug-15 06:00N 51°12' W 057°06'1312.8 220 / 221009.7 18.716.616.7
2018-Aug-15 05:00N 51°06' W 057°24'1414.2 210 / 211010.2 17.616.815.5
2018-Aug-15 04:00N 50°54' W 057°36'1312.9 210 / 211010.7 17.917.115.6
2018-Aug-15 03:00N 50°48' W 057°54'10 9.7 210 / 181011.3 17.317.016.1
2018-Aug-15 02:00N 50°42' W 058°06'3115.3 210 / 171011.8 17.417.215.6
2018-Aug-15 00:00N 50°18' W 058°36'3913.0 210 / 181012.1 18.017.516.5
2018-Aug-14 21:00N 49°54' W 059°24'3912.9 210 / 171011.8 18.317.616.6
2018-Aug-14 18:00N 49°54' W 060°24'3511.6 200 / 141011.3 16.915.913.7
2018-Aug-14 15:00N 49°54' W 061°18'3912.9 160 / 151010.9 16.916.114.4
2018-Aug-14 12:00N 49°54' W 062°18'3912.9 110 / 111011.5 15.213.514.4
2018-Aug-14 09:00N 49°54' W 063°18'3511.8 330 / 41011.4 16.713.310.1
2018-Aug-14 06:00N 50°00' W 064°12'28 9.2 210 / 191011.8 18.914.3 6.8
2018-Aug-14 03:00N 49°54' W 064°54'3913.1 280 / 101012.8 19.414.914.1
2018-Aug-14 00:00N 49°36' W 065°48'3712.4 240 / 181013.1 19.115.315.8
2018-Aug-13 21:00N 49°24' W 066°42'4314.2 240 / 151014.0 18.515.210.8
2018-Aug-13 18:00N 49°00' W 067°36'3612.1 230 / 191016.3 17.314.213.9
2018-Aug-13 15:00N 48°42' W 068°24'4314.4 230 / 211018.6 16.213.6 8.3
2018-Aug-13 12:00N 48°18' W 069°18'3612.0 210 / 121019.3 13.112.2 6.6
2018-Aug-13 09:00N 47°48' W 069°48'3411.4 210 / 51018.9 14.012.4 8.8
2018-Aug-13 06:00N 47°24' W 070°24'3912.9 230 / 11019.4 19.016.517.6
2018-Aug-13 03:00N 46°54' W 071°00'719.8 220 / 61019.3 24.017.325.3
2018-Aug-13 02:38N 46°51' W 071°09'213.4
2018-Aug-13 02:30N 46°50' W 071°11'2 0.7
2018-Aug-13 00:00N 46°48' W 071°12'0 0.0 280 / 31018.8 28.212.6
2018-Aug-12 21:00N 46°48' W 071°12'0 0.0 190 / 41019.4 30.012.6
2018-Aug-12 18:00N 46°48' W 071°12'0 0.0 190 / 51020.1 28.414.5
2018-Aug-12 15:00N 46°48' W 071°12'0 0.0 190 / 41021.0 24.816.7
2018-Aug-12 12:00N 46°48' W 071°12'0 0.0 190 / 21020.4 20.516.4
2018-Aug-12 09:00N 46°48' W 071°12'0 0.0 170 / 31019.3 18.115.9
2018-Aug-12 06:00N 46°48' W 071°12'0 0.0 160 / 31018.7 19.716.2
2018-Aug-12 03:00N 46°48' W 071°12'0 0.0 260 / 31017.1 23.516.1
2018-Aug-12 00:00N 46°48' W 071°12'0 0.0 220 / 81015.4 26.215.8
2018-Aug-11 21:00N 46°48' W 071°12'0 0.0 220 / 91014.8 26.814.6
2018-Aug-11 18:00N 46°48' W 071°12'0 0.0 220 / 81015.7 25.116.1
2018-Aug-11 15:00N 46°48' W 071°12'0 0.0 210 / 81016.0 21.115.0
2018-Aug-11 12:00N 46°48' W 071°12'0 0.0 190 / 21015.6 18.514.9
2018-Aug-11 09:00N 46°48' W 071°12'0 0.0 270 / 41013.8 16.312.9
2018-Aug-11 06:00N 46°48' W 071°12'0 0.0 210 / 41013.2 17.913.8
2018-Aug-11 03:00N 46°48' W 071°12'0 0.0 190 / 41012.4 21.013.1
2018-Aug-11 00:00N 46°48' W 071°12'0 0.0 250 / 71010.5 24.4 9.9
2018-Aug-10 21:00N 46°48' W 071°12'1 1.0 250 / 141009.9 24.2 8.825.5
2018-Aug-10 19:34N 46°49' W 071°11'0 7.4
2018-Aug-10 19:31N 46°50' W 071°11'1610.8
2018-Aug-10 18:00N 46°54' W 070°48'   280 / 131009.3 23.3 8.425.4
Track history (hours):
 
Tides and Currents Weather Stations Pressure Air Temp Water Temp Dewpoint Dewpoint Depression Visibility Wind Speed Wind Dir Waves Ship Positions

Maria Desgagnes

Last reported at 2018-Aug-20 16:00 UTC. Time now 2018-Aug-20 16:48 UTC.
Position N 56°42' W 076°54'.

Length 120 m; draft 5.6 m.

Type: Ship (hazmat cat A). MMSI: 316285000.

Wind from 250 at 21 knots

Barometer 1019.5 mb
Air temperature 5.7 ° C
Dewpoint 4.2 ° C
Water temperature 7.2 ° C

Date/timePositionNaut miles runAvg speedWind from/ knotsBaromVisibWave heightAir tempDewpointWater temp
2018-Aug-20 16:00N 56°42' W 076°54'1212.0 250 / 211019.5 5.7 4.2 7.2
2018-Aug-20 15:00N 56°54' W 076°54'1212.0 260 / 201018.9 5.7 4.3 7.4
2018-Aug-20 14:00N 57°06' W 076°54'1212.0 270 / 191018.3 6.2 4.6 7.8
2018-Aug-20 13:00N 57°18' W 076°54'1413.6 280 / 211017.2 6.0 4.5 7.8
2018-Aug-20 12:00N 57°30' W 077°06'1212.4 280 / 221016.1 6.1 4.2 8.2
2018-Aug-20 11:00N 57°42' W 077°12'2211.0 290 / 231014.6 6.3 4.1 8.1
2018-Aug-20 09:00N 58°00' W 077°36'1515.3 290 / 231012.4 6.2 4.2 7.8
2018-Aug-20 08:00N 58°12' W 077°54'1111.2 290 / 211011.5 6.1 3.8 6.9
2018-Aug-20 07:00N 58°18' W 078°12'1111.2 290 / 231010.5 5.9 3.5 6.8
2018-Aug-20 06:00N 58°24' W 078°30'1717.4 290 / 231009.0 5.9 3.0 6.5
2018-Aug-20 05:00N 58°36' W 078°54'1111.1 300 / 241007.8 6.1 3.2 6.9
2018-Aug-20 04:00N 58°42' W 079°12'1212.4 310 / 231006.7 5.1 2.8 5.9
2018-Aug-20 03:00N 58°54' W 079°18'1212.0 310 / 281005.1 4.6 3.4 5.5
2018-Aug-20 02:00N 59°06' W 079°18'1212.4 310 / 281003.5 4.4 3.5 5.0
2018-Aug-20 01:00N 59°18' W 079°12'1212.0 300 / 251001.5 4.5 4.1 4.4
2018-Aug-20 00:00N 59°30' W 079°12'1212.4 290 / 24999.8 4.5 4.4 4.3
2018-Aug-19 23:00N 59°42' W 079°06'1212.0 280 / 22998.3 4.8 4.8 4.6
2018-Aug-19 22:00N 59°54' W 079°06'1818.2 280 / 20996.5 4.8 4.7 4.1
2018-Aug-19 21:00N 60°12' W 079°00'1212.4 270 / 20995.6 4.7 4.6 4.1
2018-Aug-19 20:00N 60°24' W 078°54'1212.0 260 / 13995.1 4.5 4.4 3.8
2018-Aug-19 19:00N 60°36' W 078°54'1212.0 230 / 12994.4 4.5 4.4 5.2
2018-Aug-19 18:00N 60°48' W 078°54'6 6.0 210 / 18994.1 4.6 4.6 4.5
2018-Aug-19 17:00N 60°54' W 078°54'1818.2 190 / 19993.9 4.5 4.4 3.3
2018-Aug-19 16:00N 61°12' W 078°48'1212.0 200 / 20993.6 4.3 4.2 2.9
2018-Aug-19 15:00N 61°24' W 078°48'1212.3 190 / 22993.5 4.5 4.0 3.4
2018-Aug-19 14:00N 61°36' W 078°42'1212.3 170 / 19995.0 4.9 3.8 3.6
2018-Aug-19 13:00N 61°48' W 078°36'1212.0 160 / 20995.6 4.6 3.9 2.8
2018-Aug-19 12:00N 62°00' W 078°36'1212.3 160 / 24996.3 4.4 4.3 2.6
2018-Aug-19 11:00N 62°12' W 078°30'1212.0 170 / 22998.2 4.1 3.7 2.3
2018-Aug-19 10:00N 62°24' W 078°30'1514.6 170 / 26997.7 6.1 2.4 3.2
2018-Aug-19 09:00N 62°36' W 078°12'1010.2 170 / 22999.0 5.5 3.2 2.6
2018-Aug-19 08:00N 62°42' W 077°54'1111.0 180 / 211001.2 6.9 4.3 3.3
2018-Aug-19 07:00N 62°42' W 077°30'1111.0 160 / 101002.2 7.7 4.4 2.5
2018-Aug-19 06:00N 62°42' W 077°06'1413.8 250 / 61004.0 7.8 3.5 2.9
2018-Aug-19 05:00N 62°42' W 076°36'1515.0 240 / 21004.7 7.6 5.6 3.3
2018-Aug-19 04:00N 62°48' W 076°06'1111.0 210 / 81005.4 6.8 5.4 1.5
2018-Aug-19 03:00N 62°48' W 075°42'1111.0 180 / 81006.3 5.3 5.2 1.6
2018-Aug-19 02:00N 62°48' W 075°18'1413.7 140 / 81007.1 2.8 2.7 2.2
2018-Aug-19 01:00N 62°48' W 074°48'1111.0 140 / 71007.7 2.7 2.6 2.6
2018-Aug-19 00:00N 62°48' W 074°24'1515.0 260 / 31008.0 2.8 2.7 2.3
2018-Aug-18 23:00N 62°42' W 073°54'1312.6 270 / 51008.1 3.5 3.5 1.1
2018-Aug-18 22:00N 62°36' W 073°30'1312.6 310 / 111007.6 3.2 3.2 0.9
2018-Aug-18 21:00N 62°30' W 073°06'1312.6 310 / 131007.5 3.8 3.7 2.0
2018-Aug-18 20:00N 62°24' W 072°42'3 2.8 320 / 161007.6 3.3 3.2 3.1
2018-Aug-18 19:00N 62°24' W 072°36'6 5.6 300 / 141007.1 4.0 3.9 2.4
2018-Aug-18 18:00N 62°24' W 072°24'1515.2 310 / 141006.8 3.6 3.5 3.6
2018-Aug-18 17:00N 62°18' W 071°54'1010.3 300 / 181006.2 3.9 3.8 3.2
2018-Aug-18 16:00N 62°12' W 071°36'1312.7 280 / 121006.7 4.2 4.1 3.3
2018-Aug-18 15:00N 62°06' W 071°12'1111.2 300 / 111006.5 4.4 4.2 3.0
2018-Aug-18 14:00N 62°06' W 070°48'1010.4 320 / 131006.7 4.3 4.2 2.3
2018-Aug-18 13:00N 62°00' W 070°30'1312.8 310 / 121006.6 4.3 4.2 3.3
2018-Aug-18 12:00N 61°54' W 070°06'1111.3 320 / 121006.2 3.7 2.8 4.1
2018-Aug-18 11:00N 61°54' W 069°42'1010.4 310 / 161005.6 4.0 2.8 3.1
2018-Aug-18 10:00N 61°48' W 069°24'1312.8 310 / 171005.0 3.2 1.9 1.7
2018-Aug-18 09:00N 61°42' W 069°00'9 8.5 310 / 221004.0 2.2 2.1 1.9
2018-Aug-18 08:00N 61°42' W 068°42'8 8.3 310 / 231002.6 2.5 2.4 2.3
2018-Aug-18 07:00N 61°36' W 068°30'6 5.7 310 / 271001.4 2.4 2.4 1.6
2018-Aug-18 06:00N 61°36' W 068°18'1010.5 320 / 27999.8 2.8 2.7 1.5
2018-Aug-18 05:00N 61°30' W 068°00'6 5.7 310 / 25998.8 3.1 2.8 1.6
2018-Aug-18 04:00N 61°30' W 067°48'8 8.3 320 / 28996.6 3.3 2.9 1.2
2018-Aug-18 03:00N 61°24' W 067°36'9 8.6 320 / 28996.5 3.2 2.7 1.6
2018-Aug-18 02:00N 61°24' W 067°18'6 5.7 310 / 29995.2 2.8 2.5 1.3
2018-Aug-18 01:00N 61°24' W 067°06'1110.5 310 / 27994.7 2.6 2.4 1.0
2018-Aug-18 00:00N 61°18' W 066°48'8 8.3 300 / 28993.9 2.5 2.4 1.7
2018-Aug-17 23:00N 61°12' W 066°36'6 5.8 290 / 24994.4 2.3 2.2 1.7
2018-Aug-17 22:00N 61°12' W 066°24'1110.6 270 / 25994.6 1.9 1.7 1.6
2018-Aug-17 21:00N 61°06' W 066°06'2110.6 260 / 27993.5 1.9 1.7 1.7
2018-Aug-17 19:00N 61°00' W 065°24'1313.1 250 / 28993.5 2.3 1.5 1.4
2018-Aug-17 18:00N 60°54' W 065°00'9 8.8 260 / 28993.5 2.6 1.8 2.2
2018-Aug-17 17:00N 60°54' W 064°42'1313.1 250 / 25994.2 2.8 1.9 1.7
2018-Aug-17 16:00N 60°48' W 064°18'1716.8 240 / 21995.3 2.7 2.2 1.8
2018-Aug-17 15:00N 60°36' W 063°54'1313.4 230 / 12996.7 2.9 2.8 1.9
2018-Aug-17 14:00N 60°24' W 063°42'1515.0 250 / 17996.8 4.1 3.6 1.9
2018-Aug-17 13:00N 60°12' W 063°24'1313.4 250 / 18997.2 5.5 4.0 2.9
2018-Aug-17 12:00N 60°00' W 063°12'1110.8 290 / 18996.9 6.2 5.2 3.3
2018-Aug-17 11:00N 59°54' W 062°54'1313.4 240 / 13997.1 8.9 5.7 3.2
2018-Aug-17 10:00N 59°42' W 062°42'1313.4 180 / 20997.7 9.0 5.6 5.4
2018-Aug-17 09:00N 59°30' W 062°30'1110.9 190 / 22998.3 9.5 5.4 5.4
2018-Aug-17 08:00N 59°24' W 062°12'1212.4 190 / 23999.4 9.0 5.4 5.9
2018-Aug-17 07:00N 59°12' W 062°06'9 8.6 170 / 231001.4 8.5 4.9 6.3
2018-Aug-17 06:00N 59°06' W 061°54'1313.5 160 / 181002.7 9.8 5.1 4.6
2018-Aug-17 05:00N 58°54' W 061°42'9 8.6 200 / 141004.9 11.5 5.3 5.8
2018-Aug-17 04:00N 58°48' W 061°30'9 8.6 190 / 171005.4 8.9 4.6 6.4
2018-Aug-17 03:00N 58°42' W 061°18'1212.4 180 / 201006.7 9.4 4.3 6.0
2018-Aug-17 02:00N 58°30' W 061°12'1111.2 190 / 211008.0 9.6 4.6 5.4
2018-Aug-17 01:00N 58°24' W 060°54'1212.4 180 / 171009.5 7.8 4.4 5.5
2018-Aug-17 00:00N 58°12' W 060°48'1515.3 170 / 171010.8 7.4 4.6 5.1
2018-Aug-16 23:00N 58°00' W 060°30'1413.6 170 / 171011.8 7.9 4.6 4.6
2018-Aug-16 22:00N 57°48' W 060°18'1413.6 170 / 151012.8 9.5 4.9 4.6
2018-Aug-16 21:00N 57°36' W 060°06'9 8.8 200 / 151013.3 9.3 5.4 4.9
2018-Aug-16 20:00N 57°30' W 059°54'3 3.2 210 / 151013.5 9.5 5.8 5.3
2018-Aug-16 19:00N 57°30' W 059°48'1413.6 200 / 121014.1 8.5 6.0 5.4
2018-Aug-16 18:00N 57°18' W 059°36'1413.6 230 / 111014.2 8.8 5.6 5.8
2018-Aug-16 17:00N 57°06' W 059°24'1413.7 240 / 111014.6 8.0 5.8 5.1
2018-Aug-16 16:00N 56°54' W 059°12'1211.5 250 / 121015.0 8.0 5.8 4.8
2018-Aug-16 15:00N 56°48' W 058°54'1212.4 250 / 121015.3 7.7 5.7 4.9
2018-Aug-16 14:00N 56°36' W 058°48'1413.7 260 / 121015.6 7.0 4.9 4.4
2018-Aug-16 13:00N 56°24' W 058°36'1413.7 260 / 101015.6 6.7 5.1 4.5
2018-Aug-16 12:00N 56°12' W 058°24'9 9.0 260 / 111015.4 6.5 5.3 5.2
2018-Aug-16 11:00N 56°06' W 058°12'1615.7 240 / 101015.5 6.5 5.1 4.9
2018-Aug-16 10:00N 55°54' W 057°54'9 9.0 280 / 101015.0 7.1 5.7 7.6
2018-Aug-16 09:00N 55°48' W 057°42'1413.8 280 / 91014.7 6.1 5.7 5.8
2018-Aug-16 08:00N 55°36' W 057°30'1413.8 300 / 101014.0 6.0 5.4 6.8
2018-Aug-16 07:00N 55°24' W 057°18'7 6.9 310 / 131013.0 6.0 5.3 5.4
2018-Aug-16 06:00N 55°18' W 057°12'1413.8 310 / 121012.6 5.7 4.9 5.8
2018-Aug-16 05:00N 55°06' W 057°00'1413.8 340 / 171011.0 5.6 5.1 6.2
2018-Aug-16 04:00N 54°54' W 056°48'7 6.9 340 / 221011.3 5.5 5.3 6.1
2018-Aug-16 03:00N 54°48' W 056°42'9 9.2 320 / 201010.9 5.8 5.7 6.1
2018-Aug-16 02:00N 54°42' W 056°30'1212.5 330 / 231008.6 6.0 5.9 6.8
2018-Aug-16 01:00N 54°30' W 056°24'9 9.2 330 / 261007.4 6.7 6.2 6.7
2018-Aug-16 00:00N 54°24' W 056°12'1312.5 320 / 241006.8 6.2 6.0 6.2
2018-Aug-15 23:00N 54°12' W 056°06'1413.9 320 / 291004.9 6.9 6.0 7.8
2018-Aug-15 22:00N 54°00' W 055°54'9 9.3 320 / 271004.6 7.0 6.2 6.4
2018-Aug-15 21:00N 53°54' W 055°42'1312.5 330 / 261003.3 7.0 6.7 6.6
2018-Aug-15 20:00N 53°42' W 055°36'1414.0 340 / 221001.3 7.9 7.4 7.9
2018-Aug-15 19:00N 53°30' W 055°24'7 7.0 190 / 191000.2 12.812.7 8.5
2018-Aug-15 18:00N 53°24' W 055°18'1212.0 190 / 201000.8 13.112.8 9.1
2018-Aug-15 17:00N 53°12' W 055°18'1818.0 180 / 231002.1 12.512.3 7.3
2018-Aug-15 16:00N 52°54' W 055°18'1212.0 190 / 241003.4 13.813.7 8.8
2018-Aug-15 15:00N 52°42' W 055°18'1212.0 200 / 261004.5 13.413.4 9.1
2018-Aug-15 14:00N 52°30' W 055°18'1212.0 190 / 281005.0 13.413.3 9.5
2018-Aug-15 13:00N 52°18' W 055°18'1212.0 200 / 251006.5 14.314.1 9.8
2018-Aug-15 12:00N 52°06' W 055°18'1616.3 210 / 121006.8 15.213.810.3
2018-Aug-15 11:00N 51°54' W 055°36'10 9.5 210 / 171007.8 18.316.510.4
2018-Aug-15 10:00N 51°48' W 055°48'1616.4 200 / 141008.4 18.116.514.2
2018-Aug-15 09:00N 51°36' W 056°06'1616.1 220 / 101008.7 17.516.216.6
2018-Aug-15 08:00N 51°30' W 056°30'1312.7 260 / 101009.0 17.016.216.5
2018-Aug-15 07:00N 51°24' W 056°48'1616.5 240 / 151009.7 19.316.717.5
2018-Aug-15 06:00N 51°12' W 057°06'1312.8 220 / 221009.7 18.716.616.7
2018-Aug-15 05:00N 51°06' W 057°24'1414.2 210 / 211010.2 17.616.815.5
2018-Aug-15 04:00N 50°54' W 057°36'1312.9 210 / 211010.7 17.917.115.6
2018-Aug-15 03:00N 50°48' W 057°54'10 9.7 210 / 181011.3 17.317.016.1
2018-Aug-15 02:00N 50°42' W 058°06'3115.3 210 / 171011.8 17.417.215.6
2018-Aug-15 00:00N 50°18' W 058°36'3913.0 210 / 181012.1 18.017.516.5
2018-Aug-14 21:00N 49°54' W 059°24'3912.9 210 / 171011.8 18.317.616.6
2018-Aug-14 18:00N 49°54' W 060°24'3511.6 200 / 141011.3 16.915.913.7
2018-Aug-14 15:00N 49°54' W 061°18'3912.9 160 / 151010.9 16.916.114.4
2018-Aug-14 12:00N 49°54' W 062°18'3912.9 110 / 111011.5 15.213.514.4
2018-Aug-14 09:00N 49°54' W 063°18'3511.8 330 / 41011.4 16.713.310.1
2018-Aug-14 06:00N 50°00' W 064°12'28 9.2 210 / 191011.8 18.914.3 6.8
2018-Aug-14 03:00N 49°54' W 064°54'3913.1 280 / 101012.8 19.414.914.1
2018-Aug-14 00:00N 49°36' W 065°48'3712.4 240 / 181013.1 19.115.315.8
2018-Aug-13 21:00N 49°24' W 066°42'4314.2 240 / 151014.0 18.515.210.8
2018-Aug-13 18:00N 49°00' W 067°36'3612.1 230 / 191016.3 17.314.213.9
2018-Aug-13 15:00N 48°42' W 068°24'4314.4 230 / 211018.6 16.213.6 8.3
2018-Aug-13 12:00N 48°18' W 069°18'3612.0 210 / 121019.3 13.112.2 6.6
2018-Aug-13 09:00N 47°48' W 069°48'3411.4 210 / 51018.9 14.012.4 8.8
2018-Aug-13 06:00N 47°24' W 070°24'3912.9 230 / 11019.4 19.016.517.6
2018-Aug-13 03:00N 46°54' W 071°00'719.8 220 / 61019.3 24.017.325.3
2018-Aug-13 02:38N 46°51' W 071°09'213.4
2018-Aug-13 02:30N 46°50' W 071°11'2 0.7
2018-Aug-13 00:00N 46°48' W 071°12'0 0.0 280 / 31018.8 28.212.6
2018-Aug-12 21:00N 46°48' W 071°12'0 0.0 190 / 41019.4 30.012.6
2018-Aug-12 18:00N 46°48' W 071°12'0 0.0 190 / 51020.1 28.414.5
2018-Aug-12 15:00N 46°48' W 071°12'0 0.0 190 / 41021.0 24.816.7
2018-Aug-12 12:00N 46°48' W 071°12'0 0.0 190 / 21020.4 20.516.4
2018-Aug-12 09:00N 46°48' W 071°12'0 0.0 170 / 31019.3 18.115.9
2018-Aug-12 06:00N 46°48' W 071°12'0 0.0 160 / 31018.7 19.716.2
2018-Aug-12 03:00N 46°48' W 071°12'0 0.0 260 / 31017.1 23.516.1
2018-Aug-12 00:00N 46°48' W 071°12'0 0.0 220 / 81015.4 26.215.8
2018-Aug-11 21:00N 46°48' W 071°12'0 0.0 220 / 91014.8 26.814.6
2018-Aug-11 18:00N 46°48' W 071°12'0 0.0 220 / 81015.7 25.116.1
2018-Aug-11 15:00N 46°48' W 071°12'0 0.0 210 / 81016.0 21.115.0
2018-Aug-11 12:00N 46°48' W 071°12'0 0.0 190 / 21015.6 18.514.9
2018-Aug-11 09:00N 46°48' W 071°12'0 0.0 270 / 41013.8 16.312.9
2018-Aug-11 06:00N 46°48' W 071°12'0 0.0 210 / 41013.2 17.913.8
2018-Aug-11 03:00N 46°48' W 071°12'0 0.0 190 / 41012.4 21.013.1
2018-Aug-11 00:00N 46°48' W 071°12'0 0.0 250 / 71010.5 24.4 9.9
2018-Aug-10 21:00N 46°48' W 071°12'1 1.0 250 / 141009.9 24.2 8.825.5
2018-Aug-10 19:34N 46°49' W 071°11'0 7.4
2018-Aug-10 19:31N 46°50' W 071°11'1610.8
2018-Aug-10 18:00N 46°54' W 070°48'   280 / 131009.3 23.3 8.425.4

Dump ship's entire track history